Time;durP1;ratioP1;P1;durP2;ratioP2;P2;SDS_P1;SDS_P2;PMS_P1;PMS_P2;Temp;Humidity;BMP_temperature;BMP_pressure;BME280_temperature;BME280_humidity;BME280_pressure;Samples;Min_cycle;Max_cycle;Signal;HPM_P1;HPM_P2
2021/12/06 00:02:27;;;;;;;17.37;9.10;;;1.30;99.90;;;;;;5052880;28;20163;-70
2021/12/06 00:04:53;;;;;;;11.93;7.00;;;1.30;99.90;;;;;;5052810;28;20164;-70
2021/12/06 00:07:22;;;;;;;16.00;9.10;;;1.30;99.90;;;;;;5052801;28;20437;-70
2021/12/06 00:09:48;;;;;;;13.23;8.23;;;1.30;99.90;;;;;;5053057;28;20908;-71
2021/12/06 00:12:15;;;;;;;10.80;7.40;;;1.30;99.90;;;;;;5052962;28;20413;-70
2021/12/06 00:14:41;;;;;;;10.07;5.97;;;1.30;99.90;;;;;;5052570;28;20167;-71
2021/12/06 00:17:10;;;;;;;7.33;6.50;;;1.30;99.90;;;;;;5052765;28;20424;-71
2021/12/06 00:19:36;;;;;;;11.97;7.83;;;1.20;99.90;;;;;;5052408;28;20417;-71
2021/12/06 00:22:05;;;;;;;16.07;9.27;;;1.20;99.90;;;;;;5052411;28;20492;-70
2021/12/06 00:24:30;;;;;;;14.60;9.00;;;1.20;99.90;;;;;;5052329;28;20408;-71
2021/12/06 00:26:56;;;;;;;11.70;8.23;;;1.30;99.90;;;;;;5052220;28;20512;-71
2021/12/06 00:29:22;;;;;;;13.33;8.37;;;1.30;99.90;;;;;;5052456;28;21038;-71
2021/12/06 00:31:47;;;;;;;13.40;7.43;;;1.30;99.90;;;;;;5052257;28;20598;-71
2021/12/06 00:34:16;;;;;;;17.20;8.07;;;1.30;99.90;;;;;;5052186;28;20167;-76
2021/12/06 00:36:52;;;;;;;16.93;9.07;;;1.30;99.90;;;;;;5052124;28;20187;-70
2021/12/06 00:39:18;;;;;;;21.50;9.87;;;1.30;99.90;;;;;;5052553;28;20405;-71
2021/12/06 00:41:43;;;;;;;12.33;7.23;;;1.30;99.90;;;;;;5051719;28;20451;-70
2021/12/06 00:44:09;;;;;;;11.50;8.37;;;1.20;99.90;;;;;;5051947;28;20418;-71
2021/12/06 00:46:37;;;;;;;16.07;9.03;;;1.30;99.90;;;;;;5051755;28;20186;-71
2021/12/06 00:49:07;;;;;;;10.47;7.27;;;1.20;99.90;;;;;;5051826;28;20261;-73
2021/12/06 00:51:33;;;;;;;10.47;6.13;;;1.20;99.90;;;;;;5051799;28;20484;-71
2021/12/06 00:54:01;;;;;;;10.20;9.20;;;1.20;99.90;;;;;;5051769;28;20489;-70
2021/12/06 00:56:27;;;;;;;14.83;8.67;;;1.20;99.90;;;;;;5051462;28;20490;-71
2021/12/06 00:58:52;;;;;;;14.20;8.77;;;1.30;99.90;;;;;;5051713;28;20455;-69
2021/12/06 01:01:18;;;;;;;9.50;8.23;;;1.30;99.90;;;;;;5051590;28;20567;-69
2021/12/06 01:03:44;;;;;;;8.47;7.80;;;1.20;99.90;;;;;;5051620;28;20209;-69
2021/12/06 01:06:13;;;;;;;12.70;8.17;;;1.20;99.90;;;;;;5051520;28;20183;-69
2021/12/06 01:08:40;;;;;;;8.37;5.43;;;1.20;99.90;;;;;;5051403;28;20175;-69
2021/12/06 01:11:08;;;;;;;13.37;7.80;;;1.20;99.90;;;;;;5051342;28;20950;-69
2021/12/06 01:13:33;;;;;;;11.10;8.57;;;1.30;99.90;;;;;;5051603;28;21053;-69
2021/12/06 01:15:59;;;;;;;10.20;9.10;;;1.20;99.90;;;;;;5048402;28;20429;-69
2021/12/06 01:18:25;;;;;;;9.23;5.60;;;1.20;99.90;;;;;;5051324;28;20186;-69
2021/12/06 01:21:01;;;;;;;10.37;8.27;;;1.30;99.90;;;;;;5049359;28;20285;-69
2021/12/06 01:23:40;;;;;;;8.37;6.37;;;1.20;99.90;;;;;;5051054;28;20834;-70
2021/12/06 01:28:58;;;;;;;10.70;6.73;;;1.30;99.90;;;;;;5051472;28;20492;-69
2021/12/06 01:39:08;;;;;;;14.70;7.40;;;1.20;99.90;;;;;;5051286;28;20404;-70
2021/12/06 01:39:36;;;;;;;12.10;6.23;;;1.30;99.90;;;;;;5051061;28;20514;-69
2021/12/06 01:42:06;;;;;;;7.80;6.87;;;1.20;99.90;;;;;;5051556;28;20491;-69
2021/12/06 01:44:34;;;;;;;15.73;8.93;;;1.20;99.90;;;;;;5051141;28;20775;-69
2021/12/06 01:47:09;;;;;;;9.40;6.40;;;1.20;99.90;;;;;;5051096;28;20436;-69
2021/12/06 01:49:38;;;;;;;9.80;8.80;;;1.20;99.90;;;;;;5051055;28;20393;-70
2021/12/06 01:52:09;;;;;;;7.53;6.43;;;1.20;99.90;;;;;;5050082;28;20517;-69
2021/12/06 01:54:35;;;;;;;11.33;5.97;;;1.20;99.90;;;;;;5050818;28;20414;-70
2021/12/06 01:57:01;;;;;;;4.53;4.13;;;1.10;99.90;;;;;;5050900;28;20530;-69
2021/12/06 01:59:27;;;;;;;15.20;6.63;;;1.10;99.90;;;;;;5050904;28;20630;-71
2021/12/06 02:01:54;;;;;;;16.37;8.63;;;1.10;99.90;;;;;;5050780;28;20452;-70
2021/12/06 02:04:19;;;;;;;13.60;8.80;;;1.10;99.90;;;;;;5051928;28;20455;-70
2021/12/06 02:06:45;;;;;;;17.90;7.47;;;1.00;99.90;;;;;;5055037;28;20421;-71
2021/12/06 02:09:15;;;;;;;10.97;6.30;;;1.00;99.90;;;;;;5054640;28;20220;-72
2021/12/06 02:11:41;;;;;;;7.63;6.40;;;1.00;99.90;;;;;;5054880;28;20406;-69
2021/12/06 02:16:58;;;;;;;12.60;8.03;;;0.90;99.90;;;;;;5054760;28;20846;-68
2021/12/06 02:19:31;;;;;;;15.23;7.70;;;0.80;99.90;;;;;;5054952;28;20437;-69
2021/12/06 02:21:56;;;;;;;9.23;7.47;;;0.70;99.90;;;;;;5055098;28;20453;-69
2021/12/06 02:24:22;;;;;;;9.87;6.77;;;0.70;99.90;;;;;;5054779;28;20409;-69
2021/12/06 02:26:47;;;;;;;7.33;6.67;;;0.60;99.90;;;;;;5054767;28;20190;-71
2021/12/06 02:29:13;;;;;;;11.60;8.70;;;0.50;99.90;;;;;;5054748;28;20171;-69
2021/12/06 02:31:39;;;;;;;12.33;10.30;;;0.50;99.90;;;;;;5054553;28;20325;-69
2021/12/06 02:34:05;;;;;;;12.27;6.17;;;0.50;99.90;;;;;;5054983;28;20630;-70
2021/12/06 02:36:32;;;;;;;11.23;6.50;;;0.50;99.90;;;;;;5054946;28;20191;-69
2021/12/06 02:38:58;;;;;;;9.63;8.70;;;0.40;99.90;;;;;;5054494;28;20413;-69
2021/12/06 02:41:24;;;;;;;10.73;6.53;;;0.40;99.90;;;;;;5054585;28;20529;-69
2021/12/06 02:43:52;;;;;;;9.80;8.90;;;0.40;99.90;;;;;;5054737;28;20792;-69
2021/12/06 02:46:18;;;;;;;11.17;8.37;;;0.40;99.90;;;;;;5054228;28;20433;-69
2021/12/06 02:48:44;;;;;;;14.73;10.27;;;0.40;99.90;;;;;;5054268;28;20751;-69
2021/12/06 02:51:10;;;;;;;12.07;7.57;;;0.40;99.90;;;;;;5052900;28;20840;-69
2021/12/06 02:53:37;;;;;;;14.80;7.97;;;0.30;99.90;;;;;;5054114;28;20463;-69
2021/12/06 02:56:16;;;;;;;21.80;9.30;;;0.30;99.90;;;;;;5053965;28;20456;-69
2021/12/06 03:01:15;;;;;;;15.67;9.80;;;0.30;99.90;;;;;;5053985;28;20464;-68
2021/12/06 03:03:41;;;;;;;11.73;7.77;;;0.30;99.90;;;;;;5053986;28;20167;-70
2021/12/06 03:06:09;;;;;;;13.67;9.10;;;0.30;99.90;;;;;;5053794;28;20439;-68
2021/12/06 03:08:41;;;;;;;11.90;8.40;;;0.30;99.90;;;;;;5053822;28;20401;-70
2021/12/06 03:11:10;;;;;;;12.60;7.67;;;0.30;99.90;;;;;;5054160;28;20523;-69
2021/12/06 03:13:36;;;;;;;9.70;7.80;;;0.30;99.90;;;;;;5053757;28;20455;-68
2021/12/06 03:16:03;;;;;;;15.30;6.77;;;0.40;99.90;;;;;;5052316;28;20418;-68
2021/12/06 03:18:29;;;;;;;25.30;8.93;;;0.40;99.90;;;;;;5053671;28;20428;-68
2021/12/06 03:20:54;;;;;;;16.10;9.77;;;0.40;99.90;;;;;;5053584;28;20471;-68
2021/12/06 03:23:20;;;;;;;15.67;7.90;;;0.40;99.90;;;;;;5053510;28;20178;-68
2021/12/06 03:25:45;;;;;;;19.67;10.00;;;0.50;99.90;;;;;;5053529;28;20163;-69
2021/12/06 03:28:11;;;;;;;13.90;11.03;;;0.40;99.90;;;;;;5053704;28;20175;-68
2021/12/06 03:30:37;;;;;;;7.30;6.60;;;0.50;99.90;;;;;;5053478;28;20228;-69
2021/12/06 03:33:03;;;;;;;13.17;9.63;;;0.50;99.90;;;;;;5053526;28;20203;-67
2021/12/06 03:35:28;;;;;;;10.53;5.93;;;0.50;99.90;;;;;;5053753;28;20440;-68
2021/12/06 03:37:54;;;;;;;13.53;8.20;;;0.50;99.90;;;;;;5053114;28;20654;-69
2021/12/06 03:40:19;;;;;;;17.77;7.77;;;0.50;99.90;;;;;;5053123;28;20198;-70
2021/12/06 03:42:45;;;;;;;10.90;7.43;;;0.40;99.90;;;;;;5053333;28;20172;-69
2021/12/06 03:45:11;;;;;;;19.97;10.23;;;0.40;99.90;;;;;;5053116;28;20159;-68
2021/12/06 03:47:37;;;;;;;10.63;9.47;;;0.40;99.90;;;;;;5053146;28;20591;-68
2021/12/06 03:50:06;;;;;;;16.10;8.20;;;0.50;99.90;;;;;;5053273;28;20478;-69
2021/12/06 03:52:32;;;;;;;12.47;7.23;;;0.50;99.90;;;;;;5052951;28;20163;-68
2021/12/06 03:54:57;;;;;;;14.37;9.80;;;0.40;99.90;;;;;;5052957;28;20464;-68
2021/12/06 03:57:23;;;;;;;13.73;9.47;;;0.40;99.90;;;;;;5052927;28;20179;-68
2021/12/06 03:59:50;;;;;;;6.60;6.00;;;0.40;99.90;;;;;;5052822;28;20167;-68
2021/12/06 04:02:16;;;;;;;9.00;7.83;;;0.40;99.90;;;;;;5053284;28;20757;-69
2021/12/06 04:04:42;;;;;;;12.97;8.00;;;0.40;99.90;;;;;;5053801;28;20886;-69
2021/12/06 04:07:09;;;;;;;22.47;12.10;;;0.40;99.90;;;;;;5052991;28;20417;-69
2021/12/06 04:09:35;;;;;;;8.53;7.30;;;0.50;99.90;;;;;;5051372;28;20167;-69
2021/12/06 04:12:02;;;;;;;11.90;7.23;;;0.40;99.90;;;;;;5052576;28;20406;-69
2021/12/06 04:14:27;;;;;;;8.17;6.20;;;0.40;99.90;;;;;;5052678;28;20413;-68
2021/12/06 04:16:53;;;;;;;17.13;7.27;;;0.40;99.90;;;;;;5052463;28;20430;-69
2021/12/06 04:19:18;;;;;;;14.20;10.60;;;0.40;99.90;;;;;;5052474;28;20178;-68
2021/12/06 04:21:46;;;;;;;14.77;8.67;;;0.40;99.90;;;;;;5052297;28;20187;-68
2021/12/06 04:24:12;;;;;;;13.10;5.23;;;0.40;99.90;;;;;;5052744;28;20237;-70
2021/12/06 04:26:39;;;;;;;12.10;9.57;;;0.40;99.90;;;;;;5052132;28;20474;-70
2021/12/06 04:29:05;;;;;;;7.03;6.33;;;0.40;99.90;;;;;;5052389;28;20405;-68
2021/12/06 04:31:35;;;;;;;6.47;5.87;;;0.40;99.90;;;;;;5051229;28;20418;-68
2021/12/06 04:34:01;;;;;;;10.17;8.87;;;0.40;99.90;;;;;;5052535;28;20397;-69
2021/12/06 04:36:27;;;;;;;11.07;7.37;;;0.40;99.90;;;;;;5052116;28;20491;-69
2021/12/06 04:38:52;;;;;;;14.40;7.20;;;0.40;99.90;;;;;;5052284;28;20954;-68
2021/12/06 04:41:18;;;;;;;12.30;11.10;;;0.40;99.90;;;;;;5052181;28;20190;-68
2021/12/06 04:43:44;;;;;;;12.10;8.70;;;0.40;99.90;;;;;;5052135;28;20275;-68
2021/12/06 04:46:10;;;;;;;11.50;8.83;;;0.50;99.90;;;;;;5052053;28;20614;-68
2021/12/06 04:48:35;;;;;;;10.00;7.67;;;0.40;99.90;;;;;;5052115;28;20401;-68
2021/12/06 04:51:01;;;;;;;24.93;11.57;;;0.40;99.90;;;;;;5051850;28;20175;-68
2021/12/06 04:53:36;;;;;;;7.33;6.70;;;0.50;99.90;;;;;;5051938;28;20171;-69
2021/12/06 04:56:28;;;;;;;11.03;8.73;;;0.40;99.90;;;;;;5051866;28;20167;-70
2021/12/06 04:58:57;;;;;;;16.60;7.50;;;0.40;99.90;;;;;;5051724;28;20418;-69
2021/12/06 05:01:27;;;;;;;14.87;6.50;;;0.40;99.90;;;;;;5051543;28;20511;-69
2021/12/06 05:03:56;;;;;;;18.60;9.87;;;0.50;99.90;;;;;;5051721;28;20406;-68
2021/12/06 05:06:27;;;;;;;15.97;9.30;;;0.50;99.90;;;;;;5051555;28;20478;-68
2021/12/06 05:08:56;;;;;;;14.40;9.13;;;0.50;99.90;;;;;;5051612;28;20401;-70
2021/12/06 05:11:24;;;;;;;19.50;10.23;;;0.40;99.90;;;;;;5051576;28;20409;-68
2021/12/06 05:13:52;;;;;;;11.10;7.30;;;0.50;99.90;;;;;;5051415;28;20438;-68
2021/12/06 05:16:18;;;;;;;9.40;7.60;;;0.50;99.90;;;;;;5051309;28;20453;-68
2021/12/06 05:18:44;;;;;;;12.77;6.60;;;0.50;99.90;;;;;;5051404;28;20495;-68
2021/12/06 05:21:09;;;;;;;19.10;10.83;;;0.50;99.90;;;;;;5051272;28;20457;-68
2021/12/06 05:23:35;;;;;;;10.80;8.23;;;0.50;99.90;;;;;;5051360;28;20408;-67
2021/12/06 05:26:01;;;;;;;19.67;9.50;;;0.50;99.90;;;;;;5051155;28;20179;-68
2021/12/06 05:28:31;;;;;;;14.90;8.30;;;0.60;99.90;;;;;;5051184;28;20175;-69
2021/12/06 05:30:57;;;;;;;13.47;8.33;;;0.60;99.90;;;;;;5051234;28;20433;-68
2021/12/06 05:33:30;;;;;;;17.03;8.00;;;0.60;99.90;;;;;;5051308;28;20440;-69
2021/12/06 05:35:59;;;;;;;10.40;8.37;;;0.60;99.90;;;;;;5051116;28;20412;-70
2021/12/06 05:38:26;;;;;;;15.00;7.20;;;0.60;99.90;;;;;;5050852;28;20417;-69
2021/12/06 05:40:53;;;;;;;11.63;7.83;;;0.60;99.90;;;;;;5049216;28;20453;-69
2021/12/06 05:43:18;;;;;;;12.20;9.10;;;0.60;99.90;;;;;;5051188;28;20478;-69
2021/12/06 05:45:44;;;;;;;6.67;5.97;;;0.70;99.90;;;;;;5051140;28;20409;-69
2021/12/06 05:48:09;;;;;;;11.60;8.90;;;0.60;99.90;;;;;;5051054;28;20183;-69
2021/12/06 05:50:35;;;;;;;11.17;7.20;;;0.60;99.90;;;;;;5051190;28;20198;-68
2021/12/06 05:53:00;;;;;;;14.10;7.90;;;0.70;99.90;;;;;;5051073;28;20182;-69
2021/12/06 05:55:28;;;;;;;10.23;8.67;;;0.70;99.90;;;;;;5050828;28;20178;-69
2021/12/06 05:57:55;;;;;;;12.23;10.67;;;0.70;99.90;;;;;;5050911;28;20693;-69
2021/12/06 06:00:21;;;;;;;14.30;7.37;;;0.60;99.90;;;;;;5050898;28;20460;-69
2021/12/06 06:02:48;;;;;;;9.00;8.10;;;0.70;99.90;;;;;;5051007;28;20448;-69
2021/12/06 06:05:18;;;;;;;15.90;6.43;;;0.70;99.90;;;;;;5050839;28;20414;-71
2021/12/06 06:07:43;;;;;;;17.47;11.50;;;0.70;99.90;;;;;;5050777;28;20516;-70
2021/12/06 06:10:09;;;;;;;9.03;7.00;;;0.70;99.90;;;;;;5050647;28;20496;-69
2021/12/06 06:12:34;;;;;;;12.50;8.07;;;0.70;99.90;;;;;;5051043;28;20178;-69
2021/12/06 06:15:00;;;;;;;8.30;5.93;;;0.70;99.90;;;;;;5050686;28;20598;-71
2021/12/06 06:17:27;;;;;;;12.93;8.17;;;0.70;99.90;;;;;;5050787;28;20191;-69
2021/12/06 06:19:58;;;;;;;12.43;8.17;;;0.70;99.90;;;;;;5051076;28;20755;-69
2021/12/06 06:22:23;;;;;;;11.90;9.53;;;0.70;99.90;;;;;;5051078;28;20401;-69
2021/12/06 06:24:49;;;;;;;13.30;8.73;;;0.60;99.90;;;;;;5050837;28;20429;-68
2021/12/06 06:27:15;;;;;;;10.03;6.67;;;0.70;99.90;;;;;;5050663;28;20236;-69
2021/12/06 06:29:40;;;;;;;11.53;7.27;;;0.70;99.90;;;;;;5050974;28;20216;-70
2021/12/06 06:32:07;;;;;;;8.40;7.60;;;0.70;99.90;;;;;;5050749;28;20252;-68
2021/12/06 06:34:33;;;;;;;12.63;7.87;;;0.70;99.90;;;;;;5050820;28;20175;-72
2021/12/06 06:36:59;;;;;;;12.40;8.30;;;0.70;99.90;;;;;;5050617;28;20511;-70
2021/12/06 06:39:25;;;;;;;21.40;11.17;;;0.70;99.90;;;;;;5050659;28;20420;-71
2021/12/06 06:41:52;;;;;;;15.67;8.50;;;0.70;99.90;;;;;;5050690;28;20453;-69
2021/12/06 06:44:20;;;;;;;11.10;8.80;;;0.70;99.90;;;;;;5049195;28;20179;-69
2021/12/06 06:46:47;;;;;;;10.60;8.03;;;0.70;99.90;;;;;;5050400;28;20508;-69
2021/12/06 06:49:13;;;;;;;17.17;8.40;;;0.70;99.90;;;;;;5050411;28;20420;-68
2021/12/06 06:51:39;;;;;;;17.90;9.83;;;0.70;99.90;;;;;;5053233;28;20413;-69
2021/12/06 06:54:05;;;;;;;8.63;6.80;;;0.80;99.90;;;;;;5054259;28;20171;-69
2021/12/06 06:56:30;;;;;;;11.53;8.93;;;0.80;99.90;;;;;;5054348;28;20772;-69
2021/12/06 06:58:56;;;;;;;9.83;5.50;;;0.80;99.90;;;;;;5054193;28;20278;-69
2021/12/06 07:01:22;;;;;;;7.23;6.60;;;0.80;99.90;;;;;;5053555;28;20533;-68
2021/12/06 07:03:53;;;;;;;13.20;9.47;;;0.80;99.90;;;;;;5052336;28;20179;-70
2021/12/06 07:06:19;;;;;;;8.20;6.97;;;0.80;99.90;;;;;;5053383;28;20425;-69
2021/12/06 07:08:45;;;;;;;6.87;5.60;;;0.80;99.90;;;;;;5053640;28;20920;-69
2021/12/06 07:11:10;;;;;;;14.63;7.50;;;0.90;99.90;;;;;;5053326;28;20436;-69
2021/12/06 07:13:38;;;;;;;14.80;9.90;;;0.80;99.90;;;;;;5053562;28;20167;-74
2021/12/06 07:16:06;;;;;;;7.70;6.07;;;0.90;99.90;;;;;;5052994;28;20653;-70
2021/12/06 07:18:31;;;;;;;11.90;9.23;;;0.90;99.90;;;;;;5053342;28;20567;-70
2021/12/06 07:20:57;;;;;;;8.93;6.83;;;0.90;99.90;;;;;;5052793;28;20532;-69
2021/12/06 07:23:23;;;;;;;13.53;10.50;;;1.00;99.90;;;;;;5053252;28;20266;-69
2021/12/06 07:25:48;;;;;;;15.63;8.30;;;1.00;99.90;;;;;;5053004;28;20164;-70
2021/12/06 07:28:14;;;;;;;14.90;9.47;;;1.00;99.90;;;;;;5053028;28;20262;-69
2021/12/06 07:30:39;;;;;;;13.63;7.83;;;1.10;99.90;;;;;;5053491;28;20527;-69
2021/12/06 07:33:14;;;;;;;9.87;7.00;;;1.10;99.90;;;;;;5053167;28;20547;-69
2021/12/06 07:35:43;;;;;;;8.77;7.90;;;1.10;99.90;;;;;;5053764;28;20182;-68
2021/12/06 07:38:08;;;;;;;9.10;7.63;;;1.10;99.90;;;;;;5053291;28;20449;-70
2021/12/06 07:40:35;;;;;;;15.87;7.50;;;1.20;99.90;;;;;;5053166;28;20892;-72
2021/12/06 07:43:01;;;;;;;8.10;4.77;;;1.20;99.90;;;;;;5053381;28;20166;-69
2021/12/06 07:45:27;;;;;;;21.33;7.60;;;1.30;99.90;;;;;;5053104;28;20451;-69
2021/12/06 07:47:52;;;;;;;17.70;9.67;;;1.30;99.90;;;;;;5053037;28;20425;-69
2021/12/06 07:50:20;;;;;;;13.93;8.10;;;1.40;99.90;;;;;;5053151;28;20534;-71
2021/12/06 07:52:48;;;;;;;7.97;7.17;;;1.40;99.90;;;;;;5053304;28;20720;-69
2021/12/06 07:55:15;;;;;;;8.47;5.67;;;1.40;99.90;;;;;;5052786;28;20402;-70
2021/12/06 07:57:41;;;;;;;11.83;8.33;;;1.40;99.90;;;;;;5053069;28;20424;-70
2021/12/06 08:00:11;;;;;;;22.20;9.73;;;1.40;99.90;;;;;;5050285;28;20500;-71
2021/12/06 08:02:37;;;;;;;11.50;7.67;;;1.40;99.90;;;;;;5047435;28;20195;-69
2021/12/06 08:05:38;;;;;;;12.57;9.00;;;1.40;99.90;;;;;;5051374;28;20513;-71
2021/12/06 08:08:09;;;;;;;9.60;7.77;;;1.40;99.90;;;;;;5036934;28;20446;-69
2021/12/06 08:10:38;;;;;;;11.23;7.47;;;1.40;99.90;;;;;;5039809;28;20958;-69
2021/12/06 08:13:05;;;;;;;13.73;8.67;;;1.40;99.90;;;;;;5036997;28;20449;-69
2021/12/06 08:15:31;;;;;;;17.03;9.50;;;1.50;99.90;;;;;;5034431;28;20406;-69
2021/12/06 08:17:57;;;;;;;10.93;8.03;;;1.50;99.90;;;;;;5051163;28;20449;-70
2021/12/06 08:20:23;;;;;;;8.93;8.03;;;1.50;99.90;;;;;;5052666;28;20444;-69
2021/12/06 08:22:48;;;;;;;12.17;6.60;;;1.60;99.90;;;;;;5053056;28;20171;-70
2021/12/06 08:25:16;;;;;;;7.83;6.20;;;1.50;99.90;;;;;;5041666;28;20753;-70
2021/12/06 08:27:43;;;;;;;17.10;9.43;;;1.50;99.90;;;;;;5032223;28;20287;-70
2021/12/06 08:30:12;;;;;;;13.77;8.60;;;1.50;99.90;;;;;;5048749;28;20448;-70
2021/12/06 08:32:37;;;;;;;13.93;10.33;;;1.60;99.90;;;;;;5033107;28;20493;-69
2021/12/06 08:35:04;;;;;;;11.03;8.40;;;1.60;99.90;;;;;;5040430;28;20500;-69
2021/12/06 08:37:29;;;;;;;12.00;9.60;;;1.60;99.90;;;;;;5051878;28;21082;-69
2021/12/06 08:39:55;;;;;;;16.87;10.50;;;1.60;99.90;;;;;;5051575;28;20484;-69
2021/12/06 08:42:21;;;;;;;12.30;8.40;;;1.70;99.90;;;;;;5043312;28;20189;-69
2021/12/06 08:44:47;;;;;;;10.90;6.77;;;1.60;99.90;;;;;;5044624;28;20486;-71
2021/12/06 08:47:14;;;;;;;10.47;8.40;;;1.70;99.90;;;;;;5042608;28;20682;-70
2021/12/06 08:49:40;;;;;;;10.27;6.93;;;1.70;99.90;;;;;;5032638;28;20438;-69
2021/12/06 08:52:05;;;;;;;11.93;6.50;;;1.80;99.90;;;;;;5036803;28;20429;-69
2021/12/06 08:54:31;;;;;;;16.30;7.60;;;1.80;99.90;;;;;;5044808;28;20171;-71
2021/12/06 08:56:59;;;;;;;12.10;8.67;;;1.80;99.90;;;;;;5032699;28;20221;-70
2021/12/06 08:59:25;;;;;;;12.90;6.43;;;1.80;99.90;;;;;;5039718;28;20753;-70
2021/12/06 09:01:54;;;;;;;9.60;7.30;;;1.80;99.90;;;;;;5051783;28;20472;-70
2021/12/06 09:04:20;;;;;;;12.57;8.70;;;1.80;99.90;;;;;;5051728;28;20555;-68
2021/12/06 09:06:50;;;;;;;11.70;6.00;;;1.90;99.90;;;;;;5051397;28;20440;-70
2021/12/06 09:09:16;;;;;;;15.60;8.03;;;1.90;99.90;;;;;;5045011;28;20167;-70
2021/12/06 09:11:43;;;;;;;10.97;7.70;;;2.00;99.90;;;;;;5051365;28;20865;-72
2021/12/06 09:14:09;;;;;;;13.27;8.47;;;2.00;99.90;;;;;;5050609;28;20489;-72
2021/12/06 09:16:37;;;;;;;7.40;6.03;;;1.90;99.90;;;;;;5050471;28;20471;-69
2021/12/06 09:19:05;;;;;;;11.63;7.70;;;1.90;99.90;;;;;;5033486;28;20511;-76
2021/12/06 09:21:32;;;;;;;15.87;8.93;;;2.00;99.90;;;;;;5034735;28;20460;-69
2021/12/06 09:24:00;;;;;;;14.30;6.77;;;2.00;99.90;;;;;;5037762;28;20441;-69
2021/12/06 09:26:28;;;;;;;10.33;6.97;;;2.10;99.90;;;;;;5032230;28;20457;-71
2021/12/06 09:28:54;;;;;;;10.53;7.43;;;2.10;99.90;;;;;;5040392;28;20485;-70
2021/12/06 09:31:20;;;;;;;10.17;7.07;;;2.00;99.90;;;;;;5031727;28;20409;-70
2021/12/06 09:33:46;;;;;;;17.20;8.80;;;2.10;99.90;;;;;;5049306;28;20410;-70
2021/12/06 09:36:23;;;;;;;8.40;6.90;;;2.10;99.90;;;;;;5054774;28;20513;-70
2021/12/06 09:38:49;;;;;;;14.10;9.73;;;2.20;99.90;;;;;;5045063;28;20441;-71
2021/12/06 09:41:21;;;;;;;12.13;8.50;;;2.20;99.90;;;;;;5043213;23;20449;-70
2021/12/06 09:43:48;;;;;;;12.00;7.63;;;2.10;99.90;;;;;;5030023;28;20162;-67
2021/12/06 09:46:14;;;;;;;10.57;6.13;;;2.00;99.90;;;;;;5030750;28;20456;-68
2021/12/06 09:48:43;;;;;;;8.93;7.10;;;2.10;99.90;;;;;;5031727;28;20399;-68
2021/12/06 09:51:17;;;;;;;10.53;8.20;;;2.10;99.90;;;;;;5031848;28;20409;-69
2021/12/06 09:53:45;;;;;;;18.03;9.90;;;2.10;99.90;;;;;;5032158;28;20398;-70
2021/12/06 09:56:15;;;;;;;11.97;7.23;;;2.30;99.90;;;;;;5032056;28;20407;-68
2021/12/06 09:58:42;;;;;;;10.23;6.70;;;2.10;99.90;;;;;;5032276;28;20413;-69
2021/12/06 10:01:20;;;;;;;13.00;7.80;;;2.20;99.90;;;;;;5031579;28;21058;-69
2021/12/06 10:03:47;;;;;;;13.07;6.73;;;2.20;99.90;;;;;;5032310;28;20416;-68
2021/12/06 10:06:15;;;;;;;11.23;7.70;;;2.20;99.90;;;;;;5032059;28;20970;-69
2021/12/06 10:08:44;;;;;;;8.83;6.70;;;2.20;99.90;;;;;;5030704;28;20932;-69
2021/12/06 10:11:12;;;;;;;8.90;6.37;;;2.20;99.90;;;;;;5031977;28;20407;-69
2021/12/06 10:13:39;;;;;;;14.40;7.30;;;2.00;99.90;;;;;;5032330;28;20414;-69
2021/12/06 10:16:05;;;;;;;10.90;7.10;;;2.10;99.90;;;;;;5031923;28;20425;-68
2021/12/06 10:18:31;;;;;;;12.67;7.20;;;2.20;99.90;;;;;;5032085;28;20460;-69
2021/12/06 10:20:57;;;;;;;14.00;5.90;;;2.30;99.90;;;;;;5031400;28;20454;-69
2021/12/06 10:23:23;;;;;;;10.83;6.43;;;2.20;99.90;;;;;;5031759;28;20172;-69
2021/12/06 10:25:52;;;;;;;13.30;8.03;;;2.20;99.90;;;;;;5033356;28;20942;-69
2021/12/06 10:28:20;;;;;;;9.53;6.10;;;2.30;99.90;;;;;;5035594;28;20165;-69
2021/12/06 10:30:49;;;;;;;16.37;8.43;;;2.30;99.90;;;;;;5035375;28;20408;-69
2021/12/06 10:33:19;;;;;;;7.20;4.30;;;2.40;99.90;;;;;;5035397;28;20430;-69
2021/12/06 10:35:48;;;;;;;11.50;6.20;;;2.30;99.90;;;;;;5035185;28;20492;-69
2021/12/06 10:38:21;;;;;;;11.40;6.73;;;2.30;99.90;;;;;;5034117;28;20426;-69
2021/12/06 10:40:47;;;;;;;9.70;6.23;;;2.40;99.90;;;;;;5035325;28;20441;-69
2021/12/06 10:43:13;;;;;;;9.63;6.93;;;2.40;99.90;;;;;;5035133;28;20453;-69
2021/12/06 10:45:47;;;;;;;14.63;6.07;;;2.50;99.90;;;;;;5035665;28;20402;-69
2021/12/06 10:48:19;;;;;;;5.93;4.37;;;2.50;99.90;;;;;;5035321;28;20227;-69
2021/12/06 10:51:07;;;;;;;7.90;6.00;;;2.50;99.90;;;;;;5035171;28;20414;-69
2021/12/06 10:53:43;;;;;;;5.43;4.10;;;2.50;99.90;;;;;;5034917;28;20828;-69
2021/12/06 10:56:20;;;;;;;7.20;5.47;;;2.50;99.90;;;;;;5035480;28;20439;-69
2021/12/06 10:58:50;;;;;;;5.70;5.20;;;2.60;99.90;;;;;;5035725;28;20402;-69
2021/12/06 11:01:19;;;;;;;8.57;4.90;;;2.60;99.90;;;;;;5035194;28;20457;-71
2021/12/06 11:03:47;;;;;;;8.93;5.50;;;2.60;99.90;;;;;;5036218;28;20394;-69
2021/12/06 11:06:20;;;;;;;7.00;5.27;;;2.60;99.90;;;;;;5050632;28;20414;-69
2021/12/06 11:08:51;;;;;;;10.87;6.40;;;2.50;99.90;;;;;;5034833;28;20407;-69
2021/12/06 11:11:30;;;;;;;8.73;4.80;;;2.60;99.90;;;;;;5034616;28;20429;-69
2021/12/06 11:14:02;;;;;;;9.03;4.57;;;2.50;99.90;;;;;;5034818;28;20387;-69
2021/12/06 11:16:31;;;;;;;6.03;4.37;;;2.60;99.90;;;;;;5034579;28;20512;-69
2021/12/06 11:19:09;;;;;;;10.90;4.37;;;2.60;99.90;;;;;;5035162;28;20869;-69
2021/12/06 11:21:44;;;;;;;6.90;4.90;;;2.60;99.90;;;;;;5034702;28;20458;-69
2021/12/06 11:24:25;;;;;;;6.20;5.57;;;2.50;99.90;;;;;;5034521;28;20404;-71
2021/12/06 11:27:21;;;;;;;9.73;5.77;;;2.40;99.90;;;;;;5034367;28;20456;-70
2021/12/06 11:29:54;;;;;;;7.60;5.00;;;2.50;99.90;;;;;;5034691;28;20406;-71
2021/12/06 11:32:23;;;;;;;4.67;4.23;;;2.70;99.90;;;;;;5034313;28;20840;-70
2021/12/06 11:34:57;;;;;;;4.80;3.20;;;2.60;99.90;;;;;;5034111;28;20779;-70
2021/12/06 11:37:32;;;;;;;5.40;4.73;;;2.70;99.90;;;;;;5032995;28;20525;-71
2021/12/06 11:40:11;;;;;;;7.63;6.70;;;2.70;99.90;;;;;;5034279;28;20505;-71
2021/12/06 11:43:03;;;;;;;4.87;4.37;;;2.80;99.90;;;;;;5034230;28;20446;-70
2021/12/06 11:45:49;;;;;;;5.57;4.63;;;2.80;99.90;;;;;;5033509;28;20409;-69
2021/12/06 11:48:35;;;;;;;7.00;5.00;;;2.90;99.90;;;;;;5033566;28;20874;-70
2021/12/06 11:51:11;;;;;;;6.53;3.67;;;2.90;99.90;;;;;;5032346;28;20456;-70
2021/12/06 11:53:44;;;;;;;6.10;4.20;;;2.80;99.90;;;;;;5034252;28;20414;-71
2021/12/06 11:56:18;;;;;;;6.57;5.33;;;2.80;99.90;;;;;;5034644;28;20407;-71
2021/12/06 11:58:51;;;;;;;3.70;3.10;;;2.80;99.90;;;;;;5034280;28;20401;-69
2021/12/06 12:01:25;;;;;;;7.87;6.27;;;2.80;99.90;;;;;;5033874;28;20532;-69
2021/12/06 12:03:54;;;;;;;7.50;5.13;;;2.80;99.90;;;;;;5030765;28;20394;-69
2021/12/06 12:06:34;;;;;;;7.73;4.07;;;2.90;99.90;;;;;;5034001;28;20561;-71
2021/12/06 12:09:17;;;;;;;6.30;5.47;;;2.80;99.90;;;;;;5030708;28;20765;-70
2021/12/06 12:11:57;;;;;;;7.23;6.47;;;2.90;99.90;;;;;;5033676;28;20461;-70
2021/12/06 12:14:26;;;;;;;8.40;4.20;;;2.90;99.90;;;;;;5033612;28;20824;-70
2021/12/06 12:16:51;;;;;;;6.37;4.87;;;2.90;99.90;;;;;;5033545;28;20410;-69
2021/12/06 12:19:17;;;;;;;9.77;5.10;;;2.80;99.90;;;;;;5033830;28;20904;-70
2021/12/06 12:21:42;;;;;;;7.80;4.73;;;2.80;99.90;;;;;;5033348;28;20229;-69
2021/12/06 12:24:08;;;;;;;5.50;3.00;;;2.90;99.90;;;;;;5033708;28;20163;-70
2021/12/06 12:26:34;;;;;;;7.97;4.43;;;2.90;99.90;;;;;;5033807;28;20180;-70
2021/12/06 12:29:12;;;;;;;6.90;4.67;;;2.80;99.90;;;;;;5035311;28;20630;-70
2021/12/06 12:31:38;;;;;;;4.33;3.93;;;2.80;99.90;;;;;;5037622;28;20425;-70
2021/12/06 12:34:04;;;;;;;7.50;4.20;;;2.80;99.90;;;;;;5037727;28;20514;-70
2021/12/06 12:36:34;;;;;;;9.73;4.13;;;2.80;99.90;;;;;;5040012;28;20423;-69
2021/12/06 12:39:01;;;;;;;8.70;4.90;;;2.80;99.90;;;;;;5035829;28;20818;-70
2021/12/06 12:41:28;;;;;;;8.27;5.53;;;2.80;99.90;;;;;;5021876;28;20897;-70
2021/12/06 12:44:05;;;;;;;6.87;3.70;;;2.80;99.90;;;;;;5016704;28;20482;-69
2021/12/06 12:46:35;;;;;;;10.20;5.27;;;2.70;99.90;;;;;;5032477;28;20402;-69
2021/12/06 12:49:14;;;;;;;8.27;5.23;;;2.80;99.90;;;;;;5036116;28;20477;-69
2021/12/06 12:51:48;;;;;;;6.93;4.50;;;2.80;99.90;;;;;;5036141;28;20426;-70
2021/12/06 12:54:24;;;;;;;6.93;4.90;;;2.80;99.90;;;;;;5036343;28;20398;-70
2021/12/06 12:56:54;;;;;;;11.40;3.83;;;2.90;99.90;;;;;;5036071;28;20406;-70
2021/12/06 12:59:32;;;;;;;9.63;5.03;;;2.80;99.90;;;;;;5032668;28;20502;-70
2021/12/06 13:02:30;;;;;;;6.50;5.10;;;2.90;99.90;;;;;;5032196;28;20458;-70
2021/12/06 13:05:12;;;;;;;12.17;6.30;;;2.90;99.90;;;;;;5031014;28;20402;-71
2021/12/06 13:07:37;;;;;;;8.60;4.37;;;2.90;99.90;;;;;;5031174;28;20421;-72
2021/12/06 13:10:32;;;;;;;5.10;4.60;;;2.90;99.90;;;;;;5032065;28;20422;-70
2021/12/06 13:12:58;;;;;;;4.90;4.37;;;2.90;99.90;;;;;;5028645;28;20199;-70